sensor_id;sensor_type;location;lat;lon;timestamp;pressure;altitude;pressure_sealevel;temperature;humidity
28004;BME280;15330;51.234;6.754;2023-03-18T00:01:04;100360.50;;;11.31;99.66
28004;BME280;15330;51.234;6.754;2023-03-18T00:03:32;100369.06;;;11.26;99.78
28004;BME280;15330;51.234;6.754;2023-03-18T00:06:04;100377.59;;;11.30;99.04
28004;BME280;15330;51.234;6.754;2023-03-18T00:08:30;100388.81;;;11.25;100.00
28004;BME280;15330;51.234;6.754;2023-03-18T00:10:57;100384.22;;;11.34;99.61
28004;BME280;15330;51.234;6.754;2023-03-18T00:13:23;100373.34;;;11.35;99.62
28004;BME280;15330;51.234;6.754;2023-03-18T00:15:50;100379.13;;;11.24;100.00
28004;BME280;15330;51.234;6.754;2023-03-18T00:18:16;100381.56;;;11.34;99.73
28004;BME280;15330;51.234;6.754;2023-03-18T00:20:41;100394.28;;;11.32;99.80
28004;BME280;15330;51.234;6.754;2023-03-18T00:23:07;100400.47;;;11.32;100.00
28004;BME280;15330;51.234;6.754;2023-03-18T00:25:33;100385.44;;;11.31;100.00
28004;BME280;15330;51.234;6.754;2023-03-18T00:27:59;100387.97;;;11.25;100.00
28004;BME280;15330;51.234;6.754;2023-03-18T00:30:24;100385.78;;;11.28;100.00
28004;BME280;15330;51.234;6.754;2023-03-18T00:32:50;100386.97;;;11.26;100.00
28004;BME280;15330;51.234;6.754;2023-03-18T00:35:15;100386.63;;;11.29;100.00
28004;BME280;15330;51.234;6.754;2023-03-18T00:37:41;100386.19;;;11.17;100.00
28004;BME280;15330;51.234;6.754;2023-03-18T00:40:10;100388.72;;;11.19;100.00
28004;BME280;15330;51.234;6.754;2023-03-18T00:42:41;100375.59;;;11.24;100.00
28004;BME280;15330;51.234;6.754;2023-03-18T00:45:13;100370.56;;;11.29;100.00
28004;BME280;15330;51.234;6.754;2023-03-18T00:47:43;100365.38;;;11.04;100.00
28004;BME280;15330;51.234;6.754;2023-03-18T00:50:09;100360.66;;;11.07;100.00
28004;BME280;15330;51.234;6.754;2023-03-18T00:52:35;100376.16;;;11.19;100.00
28004;BME280;15330;51.234;6.754;2023-03-18T00:55:02;100376.44;;;11.24;100.00
28004;BME280;15330;51.234;6.754;2023-03-18T00:57:28;100363.03;;;11.01;100.00
28004;BME280;15330;51.234;6.754;2023-03-18T00:59:55;100363.84;;;11.10;100.00
28004;BME280;15330;51.234;6.754;2023-03-18T01:02:21;100367.81;;;11.14;100.00
28004;BME280;15330;51.234;6.754;2023-03-18T01:04:48;100376.56;;;11.08;100.00
28004;BME280;15330;51.234;6.754;2023-03-18T01:07:14;100382.56;;;11.10;100.00
28004;BME280;15330;51.234;6.754;2023-03-18T01:09:40;100394.81;;;11.04;100.00
28004;BME280;15330;51.234;6.754;2023-03-18T01:12:07;100391.25;;;11.12;100.00
28004;BME280;15330;51.234;6.754;2023-03-18T01:14:34;100384.75;;;11.07;100.00
28004;BME280;15330;51.234;6.754;2023-03-18T01:17:00;100383.34;;;11.19;100.00
28004;BME280;15330;51.234;6.754;2023-03-18T01:19:26;100382.09;;;11.07;100.00
28004;BME280;15330;51.234;6.754;2023-03-18T01:21:53;100377.63;;;10.99;100.00
28004;BME280;15330;51.234;6.754;2023-03-18T01:24:19;100375.84;;;11.14;100.00
28004;BME280;15330;51.234;6.754;2023-03-18T01:26:45;100382.38;;;11.12;100.00
28004;BME280;15330;51.234;6.754;2023-03-18T01:29:11;100377.69;;;11.14;100.00
28004;BME280;15330;51.234;6.754;2023-03-18T01:31:36;100395.25;;;11.16;100.00
28004;BME280;15330;51.234;6.754;2023-03-18T01:34:02;100387.69;;;11.20;100.00
28004;BME280;15330;51.234;6.754;2023-03-18T01:36:28;100380.25;;;11.07;100.00
28004;BME280;15330;51.234;6.754;2023-03-18T01:38:54;100386.88;;;11.11;100.00
28004;BME280;15330;51.234;6.754;2023-03-18T01:41:23;100392.38;;;11.18;100.00
28004;BME280;15330;51.234;6.754;2023-03-18T01:43:48;100381.44;;;11.04;100.00
28004;BME280;15330;51.234;6.754;2023-03-18T01:48:56;100384.22;;;11.11;100.00
28004;BME280;15330;51.234;6.754;2023-03-18T01:51:22;100383.63;;;11.24;100.00
28004;BME280;15330;51.234;6.754;2023-03-18T01:53:51;100383.34;;;11.19;100.00
28004;BME280;15330;51.234;6.754;2023-03-18T01:56:19;100377.00;;;11.20;100.00
28004;BME280;15330;51.234;6.754;2023-03-18T01:58:49;100371.72;;;11.03;100.00
28004;BME280;15330;51.234;6.754;2023-03-18T02:01:23;100378.34;;;11.16;100.00
28004;BME280;15330;51.234;6.754;2023-03-18T02:03:51;100379.75;;;11.03;100.00
28004;BME280;15330;51.234;6.754;2023-03-18T02:06:18;100367.19;;;11.04;100.00
28004;BME280;15330;51.234;6.754;2023-03-18T02:08:44;100360.66;;;11.07;100.00
28004;BME280;15330;51.234;6.754;2023-03-18T02:11:10;100352.44;;;10.85;100.00
28004;BME280;15330;51.234;6.754;2023-03-18T02:13:44;100353.81;;;11.04;100.00
28004;BME280;15330;51.234;6.754;2023-03-18T02:16:35;100359.91;;;10.98;100.00
28004;BME280;15330;51.234;6.754;2023-03-18T02:19:27;100365.06;;;10.99;100.00
28004;BME280;15330;51.234;6.754;2023-03-18T02:22:21;100357.31;;;10.82;100.00
28004;BME280;15330;51.234;6.754;2023-03-18T02:27:35;100370.94;;;10.95;100.00
28004;BME280;15330;51.234;6.754;2023-03-18T02:30:06;100369.94;;;10.96;100.00
28004;BME280;15330;51.234;6.754;2023-03-18T02:32:33;100373.44;;;10.96;100.00
28004;BME280;15330;51.234;6.754;2023-03-18T02:35:00;100368.16;;;10.80;100.00
28004;BME280;15330;51.234;6.754;2023-03-18T02:37:27;100368.16;;;10.80;100.00
28004;BME280;15330;51.234;6.754;2023-03-18T02:39:53;100361.19;;;10.71;100.00
28004;BME280;15330;51.234;6.754;2023-03-18T02:42:29;100355.47;;;10.82;100.00
28004;BME280;15330;51.234;6.754;2023-03-18T02:44:55;100358.31;;;10.81;100.00
28004;BME280;15330;51.234;6.754;2023-03-18T02:47:23;100371.38;;;10.76;100.00
28004;BME280;15330;51.234;6.754;2023-03-18T02:49:50;100373.63;;;10.64;100.00
28004;BME280;15330;51.234;6.754;2023-03-18T02:52:16;100378.09;;;10.72;100.00
28004;BME280;15330;51.234;6.754;2023-03-18T02:54:41;100385.44;;;10.70;100.00
28004;BME280;15330;51.234;6.754;2023-03-18T02:57:06;100391.72;;;10.54;100.00
28004;BME280;15330;51.234;6.754;2023-03-18T02:59:33;100395.06;;;10.56;100.00
28004;BME280;15330;51.234;6.754;2023-03-18T03:01:58;100384.31;;;10.64;100.00
28004;BME280;15330;51.234;6.754;2023-03-18T03:04:25;100389.22;;;10.52;100.00
28004;BME280;15330;51.234;6.754;2023-03-18T03:06:51;100394.38;;;10.54;100.00
28004;BME280;15330;51.234;6.754;2023-03-18T03:09:17;100395.41;;;10.53;100.00
28004;BME280;15330;51.234;6.754;2023-03-18T03:11:45;100383.84;;;10.52;100.00
28004;BME280;15330;51.234;6.754;2023-03-18T03:14:11;100395.41;;;10.53;100.00
28004;BME280;15330;51.234;6.754;2023-03-18T03:16:38;100389.94;;;10.38;100.00
28004;BME280;15330;51.234;6.754;2023-03-18T03:19:04;100393.75;;;10.44;100.00
28004;BME280;15330;51.234;6.754;2023-03-18T03:21:30;100396.25;;;10.45;100.00
28004;BME280;15330;51.234;6.754;2023-03-18T03:23:57;100399.91;;;10.52;100.00
28004;BME280;15330;51.234;6.754;2023-03-18T03:26:22;100405.75;;;10.56;100.00
28004;BME280;15330;51.234;6.754;2023-03-18T03:28:48;100402.09;;;10.49;100.00
28004;BME280;15330;51.234;6.754;2023-03-18T03:31:14;100400.91;;;10.51;100.00
28004;BME280;15330;51.234;6.754;2023-03-18T03:33:41;100394.09;;;10.41;100.00
28004;BME280;15330;51.234;6.754;2023-03-18T03:36:10;100394.25;;;10.39;100.00
28004;BME280;15330;51.234;6.754;2023-03-18T03:38:37;100391.59;;;10.39;100.00
28004;BME280;15330;51.234;6.754;2023-03-18T03:41:03;100403.31;;;10.30;100.00
28004;BME280;15330;51.234;6.754;2023-03-18T03:43:30;100390.13;;;10.37;100.00
28004;BME280;15330;51.234;6.754;2023-03-18T03:45:56;100408.19;;;10.26;100.00
28004;BME280;15330;51.234;6.754;2023-03-18T03:48:22;100413.50;;;10.35;100.00
28004;BME280;15330;51.234;6.754;2023-03-18T03:50:49;100416.34;;;10.33;100.00
28004;BME280;15330;51.234;6.754;2023-03-18T03:53:15;100410.31;;;10.39;100.00
28004;BME280;15330;51.234;6.754;2023-03-18T03:55:40;100423.22;;;10.27;100.00
28004;BME280;15330;51.234;6.754;2023-03-18T03:58:06;100423.06;;;10.21;100.00
28004;BME280;15330;51.234;6.754;2023-03-18T04:00:33;100434.72;;;10.28;100.00
28004;BME280;15330;51.234;6.754;2023-03-18T04:02:58;100431.25;;;10.27;100.00
28004;BME280;15330;51.234;6.754;2023-03-18T04:05:24;100427.72;;;10.19;100.00
28004;BME280;15330;51.234;6.754;2023-03-18T04:07:51;100432.56;;;10.07;100.00
28004;BME280;15330;51.234;6.754;2023-03-18T04:10:18;100418.53;;;10.21;100.00
28004;BME280;15330;51.234;6.754;2023-03-18T04:12:45;100439.44;;;10.26;100.00
28004;BME280;15330;51.234;6.754;2023-03-18T04:15:13;100438.44;;;10.27;100.00
28004;BME280;15330;51.234;6.754;2023-03-18T04:17:39;100442.09;;;10.26;100.00
28004;BME280;15330;51.234;6.754;2023-03-18T04:20:06;100430.88;;;10.30;100.00
28004;BME280;15330;51.234;6.754;2023-03-18T04:22:32;100448.09;;;10.28;100.00
28004;BME280;15330;51.234;6.754;2023-03-18T04:24:58;100443.41;;;10.30;100.00
28004;BME280;15330;51.234;6.754;2023-03-18T04:27:24;100448.94;;;10.37;100.00
28004;BME280;15330;51.234;6.754;2023-03-18T04:29:50;100453.28;;;10.38;100.00
28004;BME280;15330;51.234;6.754;2023-03-18T04:32:16;100447.09;;;10.37;100.00
28004;BME280;15330;51.234;6.754;2023-03-18T04:34:41;100462.31;;;10.37;100.00
28004;BME280;15330;51.234;6.754;2023-03-18T04:37:06;100453.78;;;10.33;100.00
28004;BME280;15330;51.234;6.754;2023-03-18T04:39:33;100446.78;;;10.16;100.00
28004;BME280;15330;51.234;6.754;2023-03-18T04:41:58;100459.28;;;10.32;100.00
28004;BME280;15330;51.234;6.754;2023-03-18T04:44:24;100452.63;;;10.27;100.00
28004;BME280;15330;51.234;6.754;2023-03-18T04:46:51;100459.16;;;10.25;100.00
28004;BME280;15330;51.234;6.754;2023-03-18T04:49:17;100463.63;;;10.33;100.00
28004;BME280;15330;51.234;6.754;2023-03-18T04:51:44;100462.50;;;10.27;100.00
28004;BME280;15330;51.234;6.754;2023-03-18T04:54:10;100469.16;;;10.31;100.00
28004;BME280;15330;51.234;6.754;2023-03-18T04:56:36;100476.16;;;10.40;100.00
28004;BME280;15330;51.234;6.754;2023-03-18T04:59:03;100470.97;;;10.39;100.00
28004;BME280;15330;51.234;6.754;2023-03-18T05:01:28;100466.97;;;10.35;100.00
28004;BME280;15330;51.234;6.754;2023-03-18T05:03:57;100470.50;;;10.35;100.00
28004;BME280;15330;51.234;6.754;2023-03-18T05:06:25;100482.16;;;10.42;100.00
28004;BME280;15330;51.234;6.754;2023-03-18T05:08:51;100477.81;;;10.41;100.00
28004;BME280;15330;51.234;6.754;2023-03-18T05:11:18;100486.84;;;10.40;100.00
28004;BME280;15330;51.234;6.754;2023-03-18T05:13:43;100482.63;;;10.62;100.00
28004;BME280;15330;51.234;6.754;2023-03-18T05:16:09;100480.78;;;10.62;100.00
28004;BME280;15330;51.234;6.754;2023-03-18T05:18:35;100482.59;;;10.70;100.00
28004;BME280;15330;51.234;6.754;2023-03-18T05:21:01;100483.47;;;10.54;100.00
28004;BME280;15330;51.234;6.754;2023-03-18T05:23:27;100486.16;;;10.54;100.00
28004;BME280;15330;51.234;6.754;2023-03-18T05:25:53;100488.50;;;10.57;100.00
28004;BME280;15330;51.234;6.754;2023-03-18T05:28:19;100501.03;;;10.49;100.00
28004;BME280;15330;51.234;6.754;2023-03-18T05:30:45;100492.31;;;10.63;100.00
28004;BME280;15330;51.234;6.754;2023-03-18T05:33:12;100492.94;;;10.73;100.00
28004;BME280;15330;51.234;6.754;2023-03-18T05:35:38;100488.97;;;10.69;100.00
28004;BME280;15330;51.234;6.754;2023-03-18T05:38:04;100488.97;;;10.61;100.00
28004;BME280;15330;51.234;6.754;2023-03-18T05:40:31;100494.69;;;10.50;100.00
28004;BME280;15330;51.234;6.754;2023-03-18T05:42:56;100500.75;;;10.36;100.00
28004;BME280;15330;51.234;6.754;2023-03-18T05:45:22;100492.00;;;10.50;100.00
28004;BME280;15330;51.234;6.754;2023-03-18T05:47:49;100496.88;;;10.30;100.00
28004;BME280;15330;51.234;6.754;2023-03-18T05:50:35;100491.72;;;10.37;100.00
28004;BME280;15330;51.234;6.754;2023-03-18T05:53:02;100499.91;;;10.35;100.00
28004;BME280;15330;51.234;6.754;2023-03-18T05:55:28;100496.91;;;10.22;100.00
28004;BME280;15330;51.234;6.754;2023-03-18T05:57:55;100507.59;;;10.38;100.00
28004;BME280;15330;51.234;6.754;2023-03-18T06:00:20;100518.09;;;10.40;100.00
28004;BME280;15330;51.234;6.754;2023-03-18T06:02:46;100518.97;;;10.24;100.00
28004;BME280;15330;51.234;6.754;2023-03-18T06:05:13;100518.28;;;10.30;100.00
28004;BME280;15330;51.234;6.754;2023-03-18T06:07:39;100520.28;;;10.20;100.00
28004;BME280;15330;51.234;6.754;2023-03-18T06:10:05;100525.78;;;10.18;100.00
28004;BME280;15330;51.234;6.754;2023-03-18T06:12:32;100519.63;;;10.34;100.00
28004;BME280;15330;51.234;6.754;2023-03-18T06:14:57;100532.16;;;10.34;100.00
28004;BME280;15330;51.234;6.754;2023-03-18T06:17:23;100534.47;;;10.28;100.00
28004;BME280;15330;51.234;6.754;2023-03-18T06:19:49;100525.97;;;10.33;100.00
28004;BME280;15330;51.234;6.754;2023-03-18T06:22:15;100522.94;;;10.44;100.00
28004;BME280;15330;51.234;6.754;2023-03-18T06:24:43;100529.97;;;10.29;100.00
28004;BME280;15330;51.234;6.754;2023-03-18T06:27:09;100543.31;;;10.61;100.00
28004;BME280;15330;51.234;6.754;2023-03-18T06:29:35;100535.63;;;10.58;100.00
28004;BME280;15330;51.234;6.754;2023-03-18T06:32:01;100534.16;;;10.48;100.00
28004;BME280;15330;51.234;6.754;2023-03-18T06:34:27;100527.28;;;10.45;100.00
28004;BME280;15330;51.234;6.754;2023-03-18T06:36:52;100530.97;;;10.44;100.00
28004;BME280;15330;51.234;6.754;2023-03-18T06:39:18;100538.97;;;10.52;100.00
28004;BME280;15330;51.234;6.754;2023-03-18T06:41:44;100535.97;;;10.55;100.00
28004;BME280;15330;51.234;6.754;2023-03-18T06:44:10;100545.47;;;10.66;100.00
28004;BME280;15330;51.234;6.754;2023-03-18T06:46:38;100548.41;;;10.95;100.00
28004;BME280;15330;51.234;6.754;2023-03-18T06:49:03;100538.59;;;11.58;100.00
28004;BME280;15330;51.234;6.754;2023-03-18T06:51:29;100538.16;;;12.60;100.00
28004;BME280;15330;51.234;6.754;2023-03-18T06:53:54;100539.16;;;14.05;97.82
28004;BME280;15330;51.234;6.754;2023-03-18T06:56:20;100541.16;;;14.66;91.97
28004;BME280;15330;51.234;6.754;2023-03-18T06:58:46;100539.81;;;15.59;90.56
28004;BME280;15330;51.234;6.754;2023-03-18T07:01:11;100535.34;;;15.93;87.67
28004;BME280;15330;51.234;6.754;2023-03-18T07:03:38;100538.69;;;16.87;82.64
28004;BME280;15330;51.234;6.754;2023-03-18T07:06:03;100542.88;;;16.50;81.07
28004;BME280;15330;51.234;6.754;2023-03-18T07:08:29;100536.44;;;16.64;82.87
28004;BME280;15330;51.234;6.754;2023-03-18T07:10:55;100548.69;;;16.73;81.47
28004;BME280;15330;51.234;6.754;2023-03-18T07:13:21;100548.31;;;17.34;79.54
28004;BME280;15330;51.234;6.754;2023-03-18T07:15:47;100552.84;;;17.53;77.43
28004;BME280;15330;51.234;6.754;2023-03-18T07:18:13;100553.84;;;18.60;73.96
28004;BME280;15330;51.234;6.754;2023-03-18T07:20:39;100551.41;;;16.80;79.91
28004;BME280;15330;51.234;6.754;2023-03-18T07:23:05;100546.16;;;16.98;77.27
28004;BME280;15330;51.234;6.754;2023-03-18T07:25:30;100554.69;;;16.42;80.77
28004;BME280;15330;51.234;6.754;2023-03-18T07:27:57;100556.91;;;17.76;76.62
28004;BME280;15330;51.234;6.754;2023-03-18T07:30:25;100553.78;;;17.79;75.91
28004;BME280;15330;51.234;6.754;2023-03-18T07:32:51;100558.38;;;18.10;72.51
28004;BME280;15330;51.234;6.754;2023-03-18T07:35:17;100559.69;;;18.32;71.68
28004;BME280;15330;51.234;6.754;2023-03-18T07:37:42;100557.34;;;18.11;72.40
28004;BME280;15330;51.234;6.754;2023-03-18T07:40:10;100565.19;;;18.19;69.70
28004;BME280;15330;51.234;6.754;2023-03-18T07:42:36;100569.63;;;19.31;67.42
28004;BME280;15330;51.234;6.754;2023-03-18T07:45:02;100571.13;;;19.45;67.42
28004;BME280;15330;51.234;6.754;2023-03-18T07:47:32;100579.75;;;20.20;66.30
28004;BME280;15330;51.234;6.754;2023-03-18T07:50:00;100576.63;;;19.38;67.11
28004;BME280;15330;51.234;6.754;2023-03-18T07:52:25;100575.97;;;20.63;64.23
28004;BME280;15330;51.234;6.754;2023-03-18T07:54:51;100583.81;;;18.90;67.51
28004;BME280;15330;51.234;6.754;2023-03-18T07:57:16;100584.00;;;19.68;65.24
28004;BME280;15330;51.234;6.754;2023-03-18T07:59:42;100584.81;;;19.87;63.83
28004;BME280;15330;51.234;6.754;2023-03-18T08:02:11;100587.84;;;20.08;64.51
28004;BME280;15330;51.234;6.754;2023-03-18T08:04:38;100593.09;;;21.10;61.05
28004;BME280;15330;51.234;6.754;2023-03-18T08:07:03;100592.72;;;20.18;65.95
28004;BME280;15330;51.234;6.754;2023-03-18T08:09:29;100591.22;;;20.75;62.99
28004;BME280;15330;51.234;6.754;2023-03-18T08:11:54;100592.56;;;19.83;63.76
28004;BME280;15330;51.234;6.754;2023-03-18T08:14:20;100591.22;;;20.75;61.83
28004;BME280;15330;51.234;6.754;2023-03-18T08:16:46;100600.34;;;19.43;64.30
28004;BME280;15330;51.234;6.754;2023-03-18T08:19:12;100600.03;;;18.96;66.94
28004;BME280;15330;51.234;6.754;2023-03-18T08:21:37;100598.50;;;20.51;61.66
28004;BME280;15330;51.234;6.754;2023-03-18T08:24:03;100608.59;;;19.55;63.81
28004;BME280;15330;51.234;6.754;2023-03-18T08:26:29;100607.38;;;21.52;60.52
28004;BME280;15330;51.234;6.754;2023-03-18T08:28:55;100605.00;;;18.99;64.25
28004;BME280;15330;51.234;6.754;2023-03-18T08:31:20;100619.28;;;19.68;63.54
28004;BME280;15330;51.234;6.754;2023-03-18T08:33:46;100625.09;;;19.71;62.85
28004;BME280;15330;51.234;6.754;2023-03-18T08:36:13;100618.78;;;20.07;61.79
28004;BME280;15330;51.234;6.754;2023-03-18T08:38:39;100617.66;;;19.49;64.09
28004;BME280;15330;51.234;6.754;2023-03-18T08:41:04;100611.22;;;21.04;60.34
28004;BME280;15330;51.234;6.754;2023-03-18T08:43:31;100614.47;;;22.05;56.70
28004;BME280;15330;51.234;6.754;2023-03-18T08:45:56;100610.97;;;21.06;60.54
28004;BME280;15330;51.234;6.754;2023-03-18T08:48:23;100619.88;;;18.90;64.87
28004;BME280;15330;51.234;6.754;2023-03-18T08:50:49;100613.69;;;21.06;60.46
28004;BME280;15330;51.234;6.754;2023-03-18T08:53:15;100605.63;;;20.99;59.42
28004;BME280;15330;51.234;6.754;2023-03-18T08:55:40;100619.63;;;20.38;61.54
28004;BME280;15330;51.234;6.754;2023-03-18T08:58:06;100626.75;;;19.54;62.93
28004;BME280;15330;51.234;6.754;2023-03-18T09:00:37;100616.44;;;19.01;64.94
28004;BME280;15330;51.234;6.754;2023-03-18T09:03:03;100617.50;;;20.10;61.89
28004;BME280;15330;51.234;6.754;2023-03-18T09:05:29;100621.69;;;18.96;63.30
28004;BME280;15330;51.234;6.754;2023-03-18T09:07:56;100624.97;;;20.44;61.03
28004;BME280;15330;51.234;6.754;2023-03-18T09:10:23;100616.56;;;20.46;59.51
28004;BME280;15330;51.234;6.754;2023-03-18T09:12:49;100618.31;;;21.80;55.53
28004;BME280;15330;51.234;6.754;2023-03-18T09:15:15;100613.72;;;22.21;52.56
28004;BME280;15330;51.234;6.754;2023-03-18T09:17:44;100630.34;;;21.56;55.06
28004;BME280;15330;51.234;6.754;2023-03-18T09:20:12;100633.88;;;22.37;53.66
28004;BME280;15330;51.234;6.754;2023-03-18T09:22:39;100628.63;;;21.38;55.46
28004;BME280;15330;51.234;6.754;2023-03-18T09:25:05;100628.59;;;21.90;54.66
28004;BME280;15330;51.234;6.754;2023-03-18T09:27:31;100624.03;;;22.81;52.14
28004;BME280;15330;51.234;6.754;2023-03-18T09:29:57;100634.25;;;23.84;50.22
28004;BME280;15330;51.234;6.754;2023-03-18T09:32:23;100616.72;;;25.77;45.33
28004;BME280;15330;51.234;6.754;2023-03-18T09:34:48;100616.94;;;27.03;42.62
28004;BME280;15330;51.234;6.754;2023-03-18T09:37:14;100619.75;;;25.28;44.89
28004;BME280;15330;51.234;6.754;2023-03-18T09:39:40;100619.41;;;26.75;42.88
28004;BME280;15330;51.234;6.754;2023-03-18T09:44:40;100608.13;;;26.30;42.72
28004;BME280;15330;51.234;6.754;2023-03-18T09:52:39;100608.72;;;26.93;40.72
28004;BME280;15330;51.234;6.754;2023-03-18T09:55:26;100608.84;;;29.48;36.22
28004;BME280;15330;51.234;6.754;2023-03-18T09:57:59;100618.84;;;29.39;35.78
28004;BME280;15330;51.234;6.754;2023-03-18T10:00:34;100606.13;;;29.43;35.99
28004;BME280;15330;51.234;6.754;2023-03-18T10:03:02;100606.25;;;27.87;38.29
28004;BME280;15330;51.234;6.754;2023-03-18T10:05:33;100612.56;;;32.17;32.00
28004;BME280;15330;51.234;6.754;2023-03-18T10:08:16;100602.59;;;30.22;34.39
28004;BME280;15330;51.234;6.754;2023-03-18T10:10:47;100613.09;;;32.41;31.67
28004;BME280;15330;51.234;6.754;2023-03-18T10:13:29;100610.03;;;31.11;33.67
28004;BME280;15330;51.234;6.754;2023-03-18T10:15:57;100602.19;;;31.72;32.32
28004;BME280;15330;51.234;6.754;2023-03-18T10:18:30;100590.13;;;33.56;30.11
28004;BME280;15330;51.234;6.754;2023-03-18T10:24:07;100607.53;;;30.44;32.64
28004;BME280;15330;51.234;6.754;2023-03-18T10:32:43;100609.78;;;32.17;30.85
28004;BME280;15330;51.234;6.754;2023-03-18T10:35:25;100605.63;;;33.17;28.85
28004;BME280;15330;51.234;6.754;2023-03-18T10:38:01;100605.56;;;31.69;31.05
28004;BME280;15330;51.234;6.754;2023-03-18T10:40:33;100604.81;;;28.82;33.60
28004;BME280;15330;51.234;6.754;2023-03-18T10:43:01;100594.28;;;30.79;32.33
28004;BME280;15330;51.234;6.754;2023-03-18T10:45:29;100594.91;;;32.26;30.92
28004;BME280;15330;51.234;6.754;2023-03-18T10:48:01;100595.75;;;32.49;30.60
28004;BME280;15330;51.234;6.754;2023-03-18T10:53:30;100592.59;;;28.16;35.50
28004;BME280;15330;51.234;6.754;2023-03-18T10:56:09;100588.50;;;32.03;30.88
28004;BME280;15330;51.234;6.754;2023-03-18T10:58:36;100589.81;;;33.17;29.49
28004;BME280;15330;51.234;6.754;2023-03-18T11:01:06;100598.09;;;30.64;32.18
28004;BME280;15330;51.234;6.754;2023-03-18T11:03:36;100594.59;;;31.37;31.49
28004;BME280;15330;51.234;6.754;2023-03-18T11:06:05;100588.28;;;29.59;33.40
28004;BME280;15330;51.234;6.754;2023-03-18T11:08:39;100594.03;;;30.24;32.32
28004;BME280;15330;51.234;6.754;2023-03-18T11:11:27;100599.50;;;32.31;30.17
28004;BME280;15330;51.234;6.754;2023-03-18T11:13:55;100593.75;;;33.65;27.69
28004;BME280;15330;51.234;6.754;2023-03-18T11:19:27;100597.63;;;31.90;29.73
28004;BME280;15330;51.234;6.754;2023-03-18T11:24:36;100598.53;;;31.99;29.29
28004;BME280;15330;51.234;6.754;2023-03-18T11:29:42;100605.75;;;28.97;33.44
28004;BME280;15330;51.234;6.754;2023-03-18T11:32:26;100618.25;;;28.50;34.65
28004;BME280;15330;51.234;6.754;2023-03-18T11:35:00;100604.22;;;31.67;30.58
28004;BME280;15330;51.234;6.754;2023-03-18T11:37:33;100612.94;;;29.93;32.33
28004;BME280;15330;51.234;6.754;2023-03-18T11:43:16;100610.63;;;27.93;36.14
28004;BME280;15330;51.234;6.754;2023-03-18T11:45:48;100591.63;;;26.05;39.37
28004;BME280;15330;51.234;6.754;2023-03-18T11:48:36;100602.81;;;23.21;45.44
28004;BME280;15330;51.234;6.754;2023-03-18T11:51:05;100597.00;;;23.34;46.02
28004;BME280;15330;51.234;6.754;2023-03-18T11:54:04;100601.66;;;21.25;49.63
28004;BME280;15330;51.234;6.754;2023-03-18T11:59:34;100604.00;;;18.69;56.60
28004;BME280;15330;51.234;6.754;2023-03-18T12:07:43;100613.78;;;19.38;56.07
28004;BME280;15330;51.234;6.754;2023-03-18T12:12:55;100603.78;;;19.57;56.43
28004;BME280;15330;51.234;6.754;2023-03-18T12:15:46;100604.06;;;19.67;57.13
28004;BME280;15330;51.234;6.754;2023-03-18T12:20:52;100587.84;;;19.05;58.37
28004;BME280;15330;51.234;6.754;2023-03-18T12:23:48;100589.16;;;19.58;56.50
28004;BME280;15330;51.234;6.754;2023-03-18T12:27:28;100593.94;;;19.37;57.80
28004;BME280;15330;51.234;6.754;2023-03-18T12:40:28;100573.63;;;18.36;61.34
28004;BME280;15330;51.234;6.754;2023-03-18T12:45:44;100559.78;;;18.19;61.78
28004;BME280;15330;51.234;6.754;2023-03-18T12:48:15;100573.75;;;18.47;61.26
28004;BME280;15330;51.234;6.754;2023-03-18T12:50:52;100563.78;;;18.16;62.27
28004;BME280;15330;51.234;6.754;2023-03-18T12:53:41;100562.78;;;18.36;61.36
28004;BME280;15330;51.234;6.754;2023-03-18T12:56:14;100568.16;;;18.11;61.13
28004;BME280;15330;51.234;6.754;2023-03-18T12:58:45;100564.22;;;18.38;60.53
28004;BME280;15330;51.234;6.754;2023-03-18T13:04:00;100555.44;;;17.80;62.21
28004;BME280;15330;51.234;6.754;2023-03-18T13:06:32;100559.97;;;18.17;62.20
28004;BME280;15330;51.234;6.754;2023-03-18T13:16:58;100558.84;;;18.00;61.92
28004;BME280;15330;51.234;6.754;2023-03-18T13:19:24;100543.75;;;17.86;62.03
28004;BME280;15330;51.234;6.754;2023-03-18T13:22:06;100554.91;;;17.65;62.38
28004;BME280;15330;51.234;6.754;2023-03-18T13:39:14;100534.66;;;17.16;64.97
28004;BME280;15330;51.234;6.754;2023-03-18T13:47:03;100521.91;;;17.36;64.37
28004;BME280;15330;51.234;6.754;2023-03-18T13:49:32;100525.09;;;17.13;64.83
28004;BME280;15330;51.234;6.754;2023-03-18T13:52:00;100528.44;;;17.22;64.49
28004;BME280;15330;51.234;6.754;2023-03-18T13:54:36;100546.53;;;17.21;64.89
28004;BME280;15330;51.234;6.754;2023-03-18T13:57:35;100564.88;;;17.00;69.16
28004;BME280;15330;51.234;6.754;2023-03-18T14:00:29;100573.59;;;16.36;77.78
28004;BME280;15330;51.234;6.754;2023-03-18T14:03:27;100562.81;;;16.36;85.87
28004;BME280;15330;51.234;6.754;2023-03-18T14:08:34;100553.69;;;16.70;88.42
28004;BME280;15330;51.234;6.754;2023-03-18T14:13:59;100567.53;;;17.06;87.25
28004;BME280;15330;51.234;6.754;2023-03-18T14:19:09;100554.91;;;17.58;89.53
28004;BME280;15330;51.234;6.754;2023-03-18T14:21:44;100556.78;;;17.64;88.37
28004;BME280;15330;51.234;6.754;2023-03-18T14:29:42;100552.13;;;18.41;83.80
28004;BME280;15330;51.234;6.754;2023-03-18T14:35:02;100535.63;;;17.35;81.25
28004;BME280;15330;51.234;6.754;2023-03-18T14:37:30;100544.47;;;17.10;83.43
28004;BME280;15330;51.234;6.754;2023-03-18T14:40:16;100545.41;;;17.36;81.16
28004;BME280;15330;51.234;6.754;2023-03-18T14:42:48;100542.78;;;17.16;79.25
28004;BME280;15330;51.234;6.754;2023-03-18T14:45:25;100546.00;;;16.67;82.59